sensor_id;sensor_type;location;lat;lon;timestamp;pressure;altitude;pressure_sealevel;temperature;humidity
78562;BME280;68963;52.138;5.446;2023-07-13T00:00:47;101401.75;;;17.63;76.12
78562;BME280;68963;52.138;5.446;2023-07-13T00:03:14;101410.22;;;17.60;76.10
78562;BME280;68963;52.138;5.446;2023-07-13T00:05:41;101400.59;;;17.59;76.38
78562;BME280;68963;52.138;5.446;2023-07-13T00:08:08;101402.88;;;17.55;76.64
78562;BME280;68963;52.138;5.446;2023-07-13T00:10:39;101399.84;;;17.52;76.92
78562;BME280;68963;52.138;5.446;2023-07-13T00:13:07;101399.06;;;17.45;77.08
78562;BME280;68963;52.138;5.446;2023-07-13T00:15:34;101404.63;;;17.43;77.40
78562;BME280;68963;52.138;5.446;2023-07-13T00:18:02;101399.75;;;17.40;77.47
78562;BME280;68963;52.138;5.446;2023-07-13T00:20:29;101403.06;;;17.35;77.83
78562;BME280;68963;52.138;5.446;2023-07-13T00:22:56;101402.50;;;17.27;78.33
78562;BME280;68963;52.138;5.446;2023-07-13T00:25:23;101402.97;;;17.24;78.38
78562;BME280;68963;52.138;5.446;2023-07-13T00:27:56;101408.13;;;17.19;78.28
78562;BME280;68963;52.138;5.446;2023-07-13T00:30:23;101406.72;;;17.16;78.02
78562;BME280;68963;52.138;5.446;2023-07-13T00:32:50;101406.34;;;17.12;78.40
78562;BME280;68963;52.138;5.446;2023-07-13T00:35:31;101413.28;;;17.13;78.15
78562;BME280;68963;52.138;5.446;2023-07-13T00:37:57;101403.88;;;17.11;78.07
78562;BME280;68963;52.138;5.446;2023-07-13T00:40:24;101409.25;;;17.04;78.56
78562;BME280;68963;52.138;5.446;2023-07-13T00:42:52;101399.88;;;17.02;78.52
78562;BME280;68963;52.138;5.446;2023-07-13T00:47:45;101399.66;;;17.03;78.38
78562;BME280;68963;52.138;5.446;2023-07-13T00:50:15;101405.19;;;17.02;78.23
78562;BME280;68963;52.138;5.446;2023-07-13T00:52:45;101410.13;;;16.98;78.46
78562;BME280;68963;52.138;5.446;2023-07-13T00:55:13;101405.44;;;16.94;78.79
78562;BME280;68963;52.138;5.446;2023-07-13T00:57:40;101399.97;;;16.88;78.86
78562;BME280;68963;52.138;5.446;2023-07-13T01:00:08;101401.44;;;16.84;79.23
78562;BME280;68963;52.138;5.446;2023-07-13T01:02:38;101406.34;;;16.81;79.36
78562;BME280;68963;52.138;5.446;2023-07-13T01:05:10;101398.00;;;16.77;79.50
78562;BME280;68963;52.138;5.446;2023-07-13T01:07:37;101394.94;;;16.74;79.91
78562;BME280;68963;52.138;5.446;2023-07-13T01:10:04;101392.69;;;16.71;80.27
78562;BME280;68963;52.138;5.446;2023-07-13T01:12:31;101399.25;;;16.68;80.33
78562;BME280;68963;52.138;5.446;2023-07-13T01:14:58;101395.38;;;16.64;80.47
78562;BME280;68963;52.138;5.446;2023-07-13T01:17:28;101402.16;;;16.60;80.84
78562;BME280;68963;52.138;5.446;2023-07-13T01:19:55;101415.06;;;16.56;80.88
78562;BME280;68963;52.138;5.446;2023-07-13T01:22:22;101413.66;;;16.54;81.29
78562;BME280;68963;52.138;5.446;2023-07-13T01:24:54;101414.50;;;16.48;81.63
78562;BME280;68963;52.138;5.446;2023-07-13T01:27:23;101415.16;;;16.43;81.67
78562;BME280;68963;52.138;5.446;2023-07-13T01:29:52;101414.75;;;16.39;82.08
78562;BME280;68963;52.138;5.446;2023-07-13T01:32:23;101418.66;;;16.37;82.39
78562;BME280;68963;52.138;5.446;2023-07-13T01:34:52;101411.72;;;16.29;82.65
78562;BME280;68963;52.138;5.446;2023-07-13T01:37:25;101410.53;;;16.25;82.73
78562;BME280;68963;52.138;5.446;2023-07-13T01:39:52;101417.47;;;16.26;82.88
78562;BME280;68963;52.138;5.446;2023-07-13T01:42:19;101415.44;;;16.22;83.07
78562;BME280;68963;52.138;5.446;2023-07-13T01:44:45;101418.53;;;16.18;83.34
78562;BME280;68963;52.138;5.446;2023-07-13T01:47:12;101410.97;;;16.15;83.52
78562;BME280;68963;52.138;5.446;2023-07-13T01:49:39;101408.72;;;16.12;83.41
78562;BME280;68963;52.138;5.446;2023-07-13T01:52:06;101414.91;;;16.06;83.61
78562;BME280;68963;52.138;5.446;2023-07-13T01:54:32;101412.44;;;16.05;83.76
78562;BME280;68963;52.138;5.446;2023-07-13T01:57:00;101415.72;;;16.00;84.01
78562;BME280;68963;52.138;5.446;2023-07-13T01:59:27;101420.22;;;16.00;84.11
78562;BME280;68963;52.138;5.446;2023-07-13T02:01:53;101416.94;;;15.98;84.22
78562;BME280;68963;52.138;5.446;2023-07-13T02:04:20;101417.38;;;15.94;84.22
78562;BME280;68963;52.138;5.446;2023-07-13T02:06:47;101413.50;;;15.90;84.56
78562;BME280;68963;52.138;5.446;2023-07-13T02:09:14;101412.69;;;15.90;84.71
78562;BME280;68963;52.138;5.446;2023-07-13T02:11:40;101427.63;;;15.84;84.84
78562;BME280;68963;52.138;5.446;2023-07-13T02:14:07;101427.22;;;15.81;85.21
78562;BME280;68963;52.138;5.446;2023-07-13T02:16:34;101436.00;;;15.81;85.50
78562;BME280;68963;52.138;5.446;2023-07-13T02:19:00;101428.66;;;15.77;85.74
78562;BME280;68963;52.138;5.446;2023-07-13T02:21:27;101434.16;;;15.75;85.61
78562;BME280;68963;52.138;5.446;2023-07-13T02:23:54;101429.25;;;15.72;85.77
78562;BME280;68963;52.138;5.446;2023-07-13T02:26:21;101427.88;;;15.69;85.98
78562;BME280;68963;52.138;5.446;2023-07-13T02:28:47;101435.81;;;15.63;86.19
78562;BME280;68963;52.138;5.446;2023-07-13T02:31:15;101430.09;;;15.59;86.29
78562;BME280;68963;52.138;5.446;2023-07-13T02:33:42;101437.84;;;15.61;86.62
78562;BME280;68963;52.138;5.446;2023-07-13T02:36:10;101435.00;;;15.56;86.85
78562;BME280;68963;52.138;5.446;2023-07-13T02:38:37;101433.78;;;15.52;87.35
78562;BME280;68963;52.138;5.446;2023-07-13T02:41:06;101435.63;;;15.51;87.46
78562;BME280;68963;52.138;5.446;2023-07-13T02:43:33;101435.00;;;15.49;87.73
78562;BME280;68963;52.138;5.446;2023-07-13T02:46:15;101439.50;;;15.49;87.78
78562;BME280;68963;52.138;5.446;2023-07-13T02:48:42;101440.69;;;15.46;88.10
78562;BME280;68963;52.138;5.446;2023-07-13T02:51:09;101436.81;;;15.42;88.11
78562;BME280;68963;52.138;5.446;2023-07-13T02:53:36;101430.94;;;15.40;88.16
78562;BME280;68963;52.138;5.446;2023-07-13T02:56:03;101425.00;;;15.38;88.50
78562;BME280;68963;52.138;5.446;2023-07-13T02:58:30;101429.88;;;15.34;88.76
78562;BME280;68963;52.138;5.446;2023-07-13T03:00:57;101436.22;;;15.33;89.31
78562;BME280;68963;52.138;5.446;2023-07-13T03:03:24;101437.66;;;15.29;89.29
78562;BME280;68963;52.138;5.446;2023-07-13T03:05:58;101441.75;;;15.25;89.50
78562;BME280;68963;52.138;5.446;2023-07-13T03:08:26;101442.16;;;15.22;89.76
78562;BME280;68963;52.138;5.446;2023-07-13T03:11:02;101443.38;;;15.19;89.98
78562;BME280;68963;52.138;5.446;2023-07-13T03:13:29;101452.53;;;15.17;90.38
78562;BME280;68963;52.138;5.446;2023-07-13T03:15:56;101450.09;;;15.15;90.61
78562;BME280;68963;52.138;5.446;2023-07-13T03:18:25;101450.09;;;15.15;90.90
78562;BME280;68963;52.138;5.446;2023-07-13T03:20:52;101441.53;;;15.13;91.35
78562;BME280;68963;52.138;5.446;2023-07-13T03:23:20;101442.75;;;15.11;91.25
78562;BME280;68963;52.138;5.446;2023-07-13T03:25:47;101435.41;;;15.06;91.30
78562;BME280;68963;52.138;5.446;2023-07-13T03:28:14;101449.88;;;15.04;91.75
78562;BME280;68963;52.138;5.446;2023-07-13T03:30:42;101450.06;;;15.02;92.03
78562;BME280;68963;52.138;5.446;2023-07-13T03:33:08;101449.06;;;15.03;92.30
78562;BME280;68963;52.138;5.446;2023-07-13T03:35:40;101453.56;;;15.03;92.67
78562;BME280;68963;52.138;5.446;2023-07-13T03:38:07;101456.22;;;15.03;92.73
78562;BME280;68963;52.138;5.446;2023-07-13T03:40:33;101458.88;;;15.03;93.00
78562;BME280;68963;52.138;5.446;2023-07-13T03:43:00;101458.03;;;15.02;93.13
78562;BME280;68963;52.138;5.446;2023-07-13T03:45:29;101457.03;;;15.03;93.45
78562;BME280;68963;52.138;5.446;2023-07-13T03:47:55;101469.50;;;15.03;93.66
78562;BME280;68963;52.138;5.446;2023-07-13T03:50:22;101464.78;;;15.05;94.10
78562;BME280;68963;52.138;5.446;2023-07-13T03:52:48;101474.78;;;15.09;94.00
78562;BME280;68963;52.138;5.446;2023-07-13T03:55:15;101472.13;;;15.09;93.85
78562;BME280;68963;52.138;5.446;2023-07-13T03:57:42;101471.31;;;15.09;94.12
78562;BME280;68963;52.138;5.446;2023-07-13T04:00:09;101477.84;;;15.13;94.43
78562;BME280;68963;52.138;5.446;2023-07-13T04:02:36;101481.13;;;15.15;94.28
78562;BME280;68963;52.138;5.446;2023-07-13T04:05:04;101485.00;;;15.19;94.33
78562;BME280;68963;52.138;5.446;2023-07-13T04:07:30;101483.00;;;15.21;94.12
78562;BME280;68963;52.138;5.446;2023-07-13T04:09:57;101481.53;;;15.18;94.40
78562;BME280;68963;52.138;5.446;2023-07-13T04:12:24;101485.44;;;15.22;94.55
78562;BME280;68963;52.138;5.446;2023-07-13T04:14:50;101484.81;;;15.27;94.49
78562;BME280;68963;52.138;5.446;2023-07-13T04:17:17;101486.03;;;15.31;94.44
78562;BME280;68963;52.138;5.446;2023-07-13T04:19:44;101477.47;;;15.29;94.24
78562;BME280;68963;52.138;5.446;2023-07-13T04:22:10;101491.56;;;15.30;94.23
78562;BME280;68963;52.138;5.446;2023-07-13T04:24:37;101488.91;;;15.30;94.34
78562;BME280;68963;52.138;5.446;2023-07-13T04:27:04;101491.97;;;15.27;94.58
78562;BME280;68963;52.138;5.446;2023-07-13T04:29:31;101496.44;;;15.26;94.78
78562;BME280;68963;52.138;5.446;2023-07-13T04:31:57;101502.41;;;15.28;94.74
78562;BME280;68963;52.138;5.446;2023-07-13T04:34:24;101502.19;;;15.30;95.00
78562;BME280;68963;52.138;5.446;2023-07-13T04:36:51;101509.34;;;15.36;95.09
78562;BME280;68963;52.138;5.446;2023-07-13T04:39:18;101500.75;;;15.40;95.47
78562;BME280;68963;52.138;5.446;2023-07-13T04:41:45;101500.78;;;15.47;95.20
78562;BME280;68963;52.138;5.446;2023-07-13T04:44:12;101497.09;;;15.55;94.87
78562;BME280;68963;52.138;5.446;2023-07-13T04:46:38;101502.81;;;15.58;94.83
78562;BME280;68963;52.138;5.446;2023-07-13T04:49:05;101500.56;;;15.62;93.57
78562;BME280;68963;52.138;5.446;2023-07-13T04:51:31;101502.81;;;15.65;94.16
78562;BME280;68963;52.138;5.446;2023-07-13T04:53:58;101505.28;;;15.73;94.41
78562;BME280;68963;52.138;5.446;2023-07-13T04:56:27;101505.06;;;15.81;94.51
78562;BME280;68963;52.138;5.446;2023-07-13T04:58:53;101501.38;;;15.89;94.37
78562;BME280;68963;52.138;5.446;2023-07-13T05:01:20;101505.25;;;15.93;94.16
78562;BME280;68963;52.138;5.446;2023-07-13T05:03:46;101506.06;;;16.00;94.27
78562;BME280;68963;52.138;5.446;2023-07-13T05:06:13;101500.75;;;16.07;93.80
78562;BME280;68963;52.138;5.446;2023-07-13T05:08:40;101505.84;;;16.08;93.68
78562;BME280;68963;52.138;5.446;2023-07-13T05:11:06;101511.16;;;16.08;93.68
78562;BME280;68963;52.138;5.446;2023-07-13T05:13:34;101511.38;;;16.13;93.77
78562;BME280;68963;52.138;5.446;2023-07-13T05:16:02;101512.38;;;16.19;94.01
78562;BME280;68963;52.138;5.446;2023-07-13T05:18:30;101507.84;;;16.26;93.46
78562;BME280;68963;52.138;5.446;2023-07-13T05:21:05;101517.44;;;16.34;93.43
78562;BME280;68963;52.138;5.446;2023-07-13T05:23:33;101519.25;;;16.40;93.67
78562;BME280;68963;52.138;5.446;2023-07-13T05:26:00;101527.00;;;16.48;93.09
78562;BME280;68963;52.138;5.446;2023-07-13T05:28:27;101520.03;;;16.54;92.96
78562;BME280;68963;52.138;5.446;2023-07-13T05:30:55;101529.81;;;16.60;93.55
78562;BME280;68963;52.138;5.446;2023-07-13T05:33:23;101518.13;;;16.67;93.39
78562;BME280;68963;52.138;5.446;2023-07-13T05:35:50;101519.97;;;16.74;92.48
78562;BME280;68963;52.138;5.446;2023-07-13T05:38:17;101526.09;;;16.81;92.59
78562;BME280;68963;52.138;5.446;2023-07-13T05:40:44;101527.72;;;16.82;92.81
78562;BME280;68963;52.138;5.446;2023-07-13T05:43:12;101531.97;;;16.89;92.99
78562;BME280;68963;52.138;5.446;2023-07-13T05:45:39;101540.34;;;16.93;92.72
78562;BME280;68963;52.138;5.446;2023-07-13T05:48:06;101535.66;;;16.88;93.02
78562;BME280;68963;52.138;5.446;2023-07-13T05:50:33;101547.09;;;16.96;93.22
78562;BME280;68963;52.138;5.446;2023-07-13T05:52:59;101542.41;;;16.98;93.04
78562;BME280;68963;52.138;5.446;2023-07-13T05:55:26;101544.81;;;17.06;92.54
78562;BME280;68963;52.138;5.446;2023-07-13T05:57:53;101544.53;;;17.14;92.67
78562;BME280;68963;52.138;5.446;2023-07-13T06:00:20;101553.56;;;17.13;92.28
78562;BME280;68963;52.138;5.446;2023-07-13T06:02:47;101550.41;;;17.23;92.02
78562;BME280;68963;52.138;5.446;2023-07-13T06:05:14;101555.94;;;17.28;92.26
78562;BME280;68963;52.138;5.446;2023-07-13T06:07:41;101560.44;;;17.27;92.46
78562;BME280;68963;52.138;5.446;2023-07-13T06:10:09;101561.38;;;17.39;92.19
78562;BME280;68963;52.138;5.446;2023-07-13T06:12:35;101570.53;;;17.50;91.31
78562;BME280;68963;52.138;5.446;2023-07-13T06:15:02;101565.75;;;17.59;91.22
78562;BME280;68963;52.138;5.446;2023-07-13T06:17:29;101573.09;;;17.63;90.07
78562;BME280;68963;52.138;5.446;2023-07-13T06:19:56;101586.09;;;17.53;90.64
78562;BME280;68963;52.138;5.446;2023-07-13T06:22:26;101574.63;;;17.53;91.19
78562;BME280;68963;52.138;5.446;2023-07-13T06:24:53;101567.59;;;17.58;89.95
78562;BME280;68963;52.138;5.446;2023-07-13T06:27:29;101578.78;;;17.67;90.19
78562;BME280;68963;52.138;5.446;2023-07-13T06:30:00;101593.44;;;17.58;90.83
78562;BME280;68963;52.138;5.446;2023-07-13T06:32:27;101586.91;;;17.54;91.33
78562;BME280;68963;52.138;5.446;2023-07-13T06:35:08;101595.06;;;17.59;90.42
78562;BME280;68963;52.138;5.446;2023-07-13T06:37:39;101585.16;;;17.66;91.00
78562;BME280;68963;52.138;5.446;2023-07-13T06:40:06;101580.22;;;17.76;90.51
78562;BME280;68963;52.138;5.446;2023-07-13T06:42:33;101590.88;;;17.76;89.85
78562;BME280;68963;52.138;5.446;2023-07-13T06:45:00;101584.72;;;17.76;90.87
78562;BME280;68963;52.138;5.446;2023-07-13T06:47:26;101585.25;;;17.84;89.14
78562;BME280;68963;52.138;5.446;2023-07-13T06:49:54;101590.13;;;17.94;90.34
78562;BME280;68963;52.138;5.446;2023-07-13T06:52:27;101582.88;;;18.01;89.93
78562;BME280;68963;52.138;5.446;2023-07-13T06:54:59;101589.16;;;18.07;89.50
78562;BME280;68963;52.138;5.446;2023-07-13T06:57:26;101584.81;;;18.13;88.90
78562;BME280;68963;52.138;5.446;2023-07-13T06:59:56;101587.88;;;18.16;89.66
78562;BME280;68963;52.138;5.446;2023-07-13T07:02:26;101591.31;;;18.42;89.11
78562;BME280;68963;52.138;5.446;2023-07-13T07:04:53;101593.78;;;18.80;86.19
78562;BME280;68963;52.138;5.446;2023-07-13T07:07:24;101596.84;;;19.14;87.25
78562;BME280;68963;52.138;5.446;2023-07-13T07:09:51;101595.06;;;19.38;84.26
78562;BME280;68963;52.138;5.446;2023-07-13T07:12:18;101608.84;;;19.23;84.21
78562;BME280;68963;52.138;5.446;2023-07-13T07:14:45;101613.66;;;19.14;84.55
78562;BME280;68963;52.138;5.446;2023-07-13T07:17:12;101606.84;;;19.18;84.19
78562;BME280;68963;52.138;5.446;2023-07-13T07:19:39;101606.25;;;19.16;84.65
78562;BME280;68963;52.138;5.446;2023-07-13T07:22:07;101608.59;;;19.24;84.76
78562;BME280;68963;52.138;5.446;2023-07-13T07:24:34;101619.56;;;19.35;84.19
78562;BME280;68963;52.138;5.446;2023-07-13T07:27:01;101616.38;;;19.44;83.80
78562;BME280;68963;52.138;5.446;2023-07-13T07:29:31;101625.84;;;19.40;83.64
78562;BME280;68963;52.138;5.446;2023-07-13T07:32:01;101622.19;;;19.23;84.28
78562;BME280;68963;52.138;5.446;2023-07-13T07:34:47;101624.09;;;19.04;85.49
78562;BME280;68963;52.138;5.446;2023-07-13T07:37:15;101626.03;;;18.97;86.10
78562;BME280;68963;52.138;5.446;2023-07-13T07:39:45;101623.00;;;18.93;88.01
78562;BME280;68963;52.138;5.446;2023-07-13T07:42:34;101627.22;;;19.01;89.39
78562;BME280;68963;52.138;5.446;2023-07-13T07:45:01;101627.56;;;19.04;87.39
78562;BME280;68963;52.138;5.446;2023-07-13T07:47:28;101626.41;;;19.00;89.75
78562;BME280;68963;52.138;5.446;2023-07-13T07:49:54;101616.53;;;19.01;90.21
78562;BME280;68963;52.138;5.446;2023-07-13T07:52:21;101611.75;;;19.03;90.25
78562;BME280;68963;52.138;5.446;2023-07-13T07:54:48;101613.41;;;19.04;90.72
78562;BME280;68963;52.138;5.446;2023-07-13T07:57:17;101607.38;;;19.09;90.16
78562;BME280;68963;52.138;5.446;2023-07-13T08:00:05;101599.00;;;19.05;89.79
78562;BME280;68963;52.138;5.446;2023-07-13T08:02:35;101599.81;;;19.05;89.96
78562;BME280;68963;52.138;5.446;2023-07-13T08:05:04;101605.97;;;19.06;89.96
78562;BME280;68963;52.138;5.446;2023-07-13T08:07:35;101613.38;;;19.22;89.19
78562;BME280;68963;52.138;5.446;2023-07-13T08:10:02;101614.81;;;19.37;87.47
78562;BME280;68963;52.138;5.446;2023-07-13T08:12:29;101604.84;;;19.44;87.29
78562;BME280;68963;52.138;5.446;2023-07-13T08:14:58;101620.38;;;19.65;87.66
78562;BME280;68963;52.138;5.446;2023-07-13T08:17:27;101612.19;;;19.90;86.69
78562;BME280;68963;52.138;5.446;2023-07-13T08:19:54;101624.13;;;19.88;85.32
78562;BME280;68963;52.138;5.446;2023-07-13T08:22:21;101612.88;;;19.74;82.46
78562;BME280;68963;52.138;5.446;2023-07-13T08:24:49;101608.44;;;19.79;84.64
78562;BME280;68963;52.138;5.446;2023-07-13T08:27:23;101600.78;;;19.95;82.32
78562;BME280;68963;52.138;5.446;2023-07-13T08:29:50;101614.38;;;19.82;82.35
78562;BME280;68963;52.138;5.446;2023-07-13T08:32:18;101611.91;;;19.68;82.80
78562;BME280;68963;52.138;5.446;2023-07-13T08:34:45;101613.94;;;19.54;82.30
78562;BME280;68963;52.138;5.446;2023-07-13T08:37:12;101611.84;;;19.57;82.77
78562;BME280;68963;52.138;5.446;2023-07-13T08:39:39;101609.06;;;19.93;80.81
78562;BME280;68963;52.138;5.446;2023-07-13T08:47:25;101613.69;;;20.68;75.75
78562;BME280;68963;52.138;5.446;2023-07-13T08:49:53;101620.81;;;20.63;75.87
78562;BME280;68963;52.138;5.446;2023-07-13T08:52:25;101624.28;;;20.63;76.16
78562;BME280;68963;52.138;5.446;2023-07-13T08:54:58;101632.53;;;20.62;72.90
78562;BME280;68963;52.138;5.446;2023-07-13T08:57:31;101633.72;;;20.54;73.38
78562;BME280;68963;52.138;5.446;2023-07-13T08:59:59;101629.41;;;20.41;72.09
78562;BME280;68963;52.138;5.446;2023-07-13T09:02:34;101633.47;;;20.32;72.49
78562;BME280;68963;52.138;5.446;2023-07-13T09:05:13;101645.09;;;20.02;71.53
78562;BME280;68963;52.138;5.446;2023-07-13T09:08:08;101640.06;;;19.71;73.60
78562;BME280;68963;52.138;5.446;2023-07-13T09:10:45;101638.94;;;19.60;74.98
78562;BME280;68963;52.138;5.446;2023-07-13T09:13:35;101637.31;;;19.59;74.89
78562;BME280;68963;52.138;5.446;2023-07-13T09:16:04;101628.69;;;19.57;75.39
78562;BME280;68963;52.138;5.446;2023-07-13T09:18:36;101637.38;;;19.71;78.14
78562;BME280;68963;52.138;5.446;2023-07-13T09:21:09;101640.88;;;19.83;79.05
78562;BME280;68963;52.138;5.446;2023-07-13T09:23:38;101633.81;;;19.89;78.63
78562;BME280;68963;52.138;5.446;2023-07-13T09:26:09;101628.81;;;19.92;79.45
78562;BME280;68963;52.138;5.446;2023-07-13T09:28:41;101633.22;;;19.98;81.35
78562;BME280;68963;52.138;5.446;2023-07-13T09:34:12;101628.72;;;20.22;80.93
78562;BME280;68963;52.138;5.446;2023-07-13T09:36:39;101638.72;;;20.50;81.21
78562;BME280;68963;52.138;5.446;2023-07-13T09:44:31;101637.91;;;21.42;75.45
78562;BME280;68963;52.138;5.446;2023-07-13T09:47:00;101644.13;;;21.43;74.24
78562;BME280;68963;52.138;5.446;2023-07-13T09:49:29;101642.81;;;21.05;74.11
78562;BME280;68963;52.138;5.446;2023-07-13T09:52:02;101649.88;;;20.71;74.56
78562;BME280;68963;52.138;5.446;2023-07-13T09:54:37;101662.91;;;20.32;75.30
78562;BME280;68963;52.138;5.446;2023-07-13T09:57:13;101680.28;;;19.88;77.68
78562;BME280;68963;52.138;5.446;2023-07-13T09:59:44;101700.38;;;19.48;81.90
78562;BME280;68963;52.138;5.446;2023-07-13T10:02:29;101696.56;;;19.08;84.67
78562;BME280;68963;52.138;5.446;2023-07-13T10:05:05;101687.56;;;18.83;83.70
78562;BME280;68963;52.138;5.446;2023-07-13T10:07:38;101683.47;;;18.81;86.00
78562;BME280;68963;52.138;5.446;2023-07-13T10:10:22;101683.84;;;18.85;84.10
78562;BME280;68963;52.138;5.446;2023-07-13T10:12:49;101680.22;;;19.16;86.05
78562;BME280;68963;52.138;5.446;2023-07-13T10:15:27;101676.22;;;19.55;86.56
78562;BME280;68963;52.138;5.446;2023-07-13T10:17:55;101667.88;;;19.93;84.55
78562;BME280;68963;52.138;5.446;2023-07-13T10:20:26;101680.47;;;20.16;82.58
78562;BME280;68963;52.138;5.446;2023-07-13T10:23:04;101688.72;;;20.15;84.35
78562;BME280;68963;52.138;5.446;2023-07-13T10:25:34;101689.66;;;20.09;85.41
78562;BME280;68963;52.138;5.446;2023-07-13T10:28:29;101686.88;;;20.27;86.48
78562;BME280;68963;52.138;5.446;2023-07-13T10:30:58;101679.44;;;20.41;84.83
78562;BME280;68963;52.138;5.446;2023-07-13T10:33:26;101683.16;;;20.75;82.83
78562;BME280;68963;52.138;5.446;2023-07-13T10:36:05;101678.78;;;21.09;82.83
78562;BME280;68963;52.138;5.446;2023-07-13T10:38:46;101685.47;;;21.07;81.02
78562;BME280;68963;52.138;5.446;2023-07-13T10:41:18;101679.59;;;21.10;83.00
78562;BME280;68963;52.138;5.446;2023-07-13T10:43:49;101684.50;;;21.13;80.84
78562;BME280;68963;52.138;5.446;2023-07-13T10:46:20;101692.59;;;20.89;80.04
78562;BME280;68963;52.138;5.446;2023-07-13T10:48:56;101688.41;;;20.82;80.07
78562;BME280;68963;52.138;5.446;2023-07-13T10:51:25;101691.31;;;20.68;80.57
78562;BME280;68963;52.138;5.446;2023-07-13T10:56:45;101699.00;;;20.88;82.49
78562;BME280;68963;52.138;5.446;2023-07-13T10:59:25;101695.50;;;21.28;82.62
78562;BME280;68963;52.138;5.446;2023-07-13T11:02:08;101697.38;;;21.39;77.91
78562;BME280;68963;52.138;5.446;2023-07-13T11:04:47;101694.66;;;21.51;75.17
78562;BME280;68963;52.138;5.446;2023-07-13T11:07:26;101707.66;;;21.88;74.98
78562;BME280;68963;52.138;5.446;2023-07-13T11:10:05;101710.00;;;22.01;71.10
78562;BME280;68963;52.138;5.446;2023-07-13T11:12:50;101712.41;;;22.14;72.49
78562;BME280;68963;52.138;5.446;2023-07-13T11:15:31;101715.81;;;22.43;66.79
78562;BME280;68963;52.138;5.446;2023-07-13T11:18:03;101711.84;;;22.46;67.17
78562;BME280;68963;52.138;5.446;2023-07-13T11:20:36;101702.81;;;22.74;64.45
78562;BME280;68963;52.138;5.446;2023-07-13T11:25:38;101700.50;;;23.00;63.48
78562;BME280;68963;52.138;5.446;2023-07-13T11:31:01;101696.97;;;23.16;64.96
78562;BME280;68963;52.138;5.446;2023-07-13T11:36:06;101701.91;;;22.13;62.43
78562;BME280;68963;52.138;5.446;2023-07-13T11:38:38;101702.38;;;21.64;67.31
78562;BME280;68963;52.138;5.446;2023-07-13T11:41:23;101707.81;;;21.53;68.04
78562;BME280;68963;52.138;5.446;2023-07-13T11:44:06;101725.34;;;21.20;74.14
78562;BME280;68963;52.138;5.446;2023-07-13T11:46:33;101726.13;;;20.92;78.48
78562;BME280;68963;52.138;5.446;2023-07-13T11:49:00;101738.69;;;21.03;77.23
78562;BME280;68963;52.138;5.446;2023-07-13T11:51:33;101734.72;;;20.94;76.54
78562;BME280;68963;52.138;5.446;2023-07-13T11:54:03;101728.09;;;20.61;76.19
78562;BME280;68963;52.138;5.446;2023-07-13T11:56:31;101728.34;;;20.60;77.98
78562;BME280;68963;52.138;5.446;2023-07-13T11:59:04;101726.84;;;20.64;77.72
78562;BME280;68963;52.138;5.446;2023-07-13T12:01:33;101730.91;;;20.66;78.30
78562;BME280;68963;52.138;5.446;2023-07-13T12:04:02;101729.06;;;20.67;77.32
78562;BME280;68963;52.138;5.446;2023-07-13T12:06:36;101737.53;;;20.64;78.86
78562;BME280;68963;52.138;5.446;2023-07-13T12:09:12;101727.66;;;20.64;77.59
78562;BME280;68963;52.138;5.446;2023-07-13T12:11:43;101726.84;;;20.64;80.80
78562;BME280;68963;52.138;5.446;2023-07-13T12:14:16;101728.34;;;20.71;80.44
78562;BME280;68963;52.138;5.446;2023-07-13T12:16:45;101734.03;;;20.75;78.99
78562;BME280;68963;52.138;5.446;2023-07-13T12:19:27;101730.19;;;20.83;80.09
78562;BME280;68963;52.138;5.446;2023-07-13T12:21:56;101740.91;;;20.94;81.84
78562;BME280;68963;52.138;5.446;2023-07-13T12:24:24;101731.56;;;21.09;81.14
78562;BME280;68963;52.138;5.446;2023-07-13T12:26:55;101739.72;;;21.14;81.89
78562;BME280;68963;52.138;5.446;2023-07-13T12:29:25;101730.50;;;21.21;80.50
78562;BME280;68963;52.138;5.446;2023-07-13T12:31:52;101737.81;;;21.26;80.43
78562;BME280;68963;52.138;5.446;2023-07-13T12:34:21;101735.84;;;21.33;80.86
78562;BME280;68963;52.138;5.446;2023-07-13T12:36:54;101741.53;;;21.77;81.25
78562;BME280;68963;52.138;5.446;2023-07-13T12:39:45;101734.00;;;22.08;77.67
78562;BME280;68963;52.138;5.446;2023-07-13T12:44:47;101724.38;;;22.96;70.56
78562;BME280;68963;52.138;5.446;2023-07-13T12:47:14;101729.19;;;22.94;73.97
78562;BME280;68963;52.138;5.446;2023-07-13T12:49:54;101718.69;;;23.14;67.24
78562;BME280;68963;52.138;5.446;2023-07-13T12:52:28;101729.31;;;22.49;69.39
78562;BME280;68963;52.138;5.446;2023-07-13T12:55:10;101725.09;;;22.19;72.40
78562;BME280;68963;52.138;5.446;2023-07-13T12:58:04;101735.94;;;21.95;71.00
78562;BME280;68963;52.138;5.446;2023-07-13T13:00:33;101727.81;;;22.07;66.54
78562;BME280;68963;52.138;5.446;2023-07-13T13:03:34;101733.88;;;22.48;67.14
78562;BME280;68963;52.138;5.446;2023-07-13T13:06:25;101728.19;;;23.00;67.96
78562;BME280;68963;52.138;5.446;2023-07-13T13:08:54;101717.81;;;22.53;63.72
78562;BME280;68963;52.138;5.446;2023-07-13T13:11:22;101732.00;;;22.15;63.71
78562;BME280;68963;52.138;5.446;2023-07-13T13:13:50;101738.22;;;22.04;67.28
78562;BME280;68963;52.138;5.446;2023-07-13T13:18:55;101733.25;;;22.97;65.48
78562;BME280;68963;52.138;5.446;2023-07-13T13:21:24;101730.66;;;22.68;65.36
78562;BME280;68963;52.138;5.446;2023-07-13T13:23:52;101734.78;;;22.54;67.83
78562;BME280;68963;52.138;5.446;2023-07-13T13:26:21;101731.50;;;22.69;66.44
78562;BME280;68963;52.138;5.446;2023-07-13T13:28:48;101734.00;;;22.75;67.16
78562;BME280;68963;52.138;5.446;2023-07-13T13:31:15;101732.88;;;22.71;63.57
78562;BME280;68963;52.138;5.446;2023-07-13T13:33:44;101743.38;;;22.56;60.19
78562;BME280;68963;52.138;5.446;2023-07-13T13:36:20;101717.66;;;22.77;59.08